sensor_id;sensor_type;location;lat;lon;timestamp;temperature;humidity
5196;DHT22;2617;51.006;12.436;2024-03-08T00:01:49;-1.00;99.90
5196;DHT22;2617;51.006;12.436;2024-03-08T00:06:52;-0.80;99.90
5196;DHT22;2617;51.006;12.436;2024-03-08T00:11:54;-0.80;99.90
5196;DHT22;2617;51.006;12.436;2024-03-08T00:16:57;-0.80;99.90
5196;DHT22;2617;51.006;12.436;2024-03-08T00:21:59;-0.90;99.90
5196;DHT22;2617;51.006;12.436;2024-03-08T00:27:03;-0.90;99.90
5196;DHT22;2617;51.006;12.436;2024-03-08T00:32:05;-0.90;99.90
5196;DHT22;2617;51.006;12.436;2024-03-08T00:37:09;-1.00;99.90
5196;DHT22;2617;51.006;12.436;2024-03-08T00:42:11;-1.10;99.90
5196;DHT22;2617;51.006;12.436;2024-03-08T00:47:14;-1.20;99.90
5196;DHT22;2617;51.006;12.436;2024-03-08T00:52:16;-1.20;99.90
5196;DHT22;2617;51.006;12.436;2024-03-08T00:57:19;-1.40;99.90
5196;DHT22;2617;51.006;12.436;2024-03-08T01:02:22;-1.50;99.90
5196;DHT22;2617;51.006;12.436;2024-03-08T01:07:24;-1.50;99.90
5196;DHT22;2617;51.006;12.436;2024-03-08T01:12:28;-1.60;99.90
5196;DHT22;2617;51.006;12.436;2024-03-08T01:17:30;-1.60;99.90
5196;DHT22;2617;51.006;12.436;2024-03-08T01:22:32;-1.60;99.90
5196;DHT22;2617;51.006;12.436;2024-03-08T01:27:36;-1.60;99.90
5196;DHT22;2617;51.006;12.436;2024-03-08T01:32:38;-1.60;99.90
5196;DHT22;2617;51.006;12.436;2024-03-08T01:37:41;-1.60;99.90
5196;DHT22;2617;51.006;12.436;2024-03-08T01:42:43;-1.70;99.90
5196;DHT22;2617;51.006;12.436;2024-03-08T01:47:46;-1.70;99.90
5196;DHT22;2617;51.006;12.436;2024-03-08T01:52:49;-1.80;99.90
5196;DHT22;2617;51.006;12.436;2024-03-08T01:57:51;-1.90;99.90
5196;DHT22;2617;51.006;12.436;2024-03-08T02:02:54;-1.90;99.90
5196;DHT22;2617;51.006;12.436;2024-03-08T02:07:56;-2.00;99.90
5196;DHT22;2617;51.006;12.436;2024-03-08T02:12:59;-2.10;99.90
5196;DHT22;2617;51.006;12.436;2024-03-08T02:18:01;-2.10;99.90
5196;DHT22;2617;51.006;12.436;2024-03-08T02:23:04;-2.20;99.90
5196;DHT22;2617;51.006;12.436;2024-03-08T02:28:06;-2.20;99.90
5196;DHT22;2617;51.006;12.436;2024-03-08T02:33:09;-2.30;99.90
5196;DHT22;2617;51.006;12.436;2024-03-08T02:38:13;-2.30;99.90
5196;DHT22;2617;51.006;12.436;2024-03-08T02:43:18;-2.30;99.90
5196;DHT22;2617;51.006;12.436;2024-03-08T02:48:20;-2.30;99.90
5196;DHT22;2617;51.006;12.436;2024-03-08T02:53:22;-2.20;99.90
5196;DHT22;2617;51.006;12.436;2024-03-08T02:58:26;-2.30;99.90
5196;DHT22;2617;51.006;12.436;2024-03-08T03:03:28;-2.30;99.90
5196;DHT22;2617;51.006;12.436;2024-03-08T03:08:30;-2.40;99.90
5196;DHT22;2617;51.006;12.436;2024-03-08T03:13:34;-2.40;99.90
5196;DHT22;2617;51.006;12.436;2024-03-08T03:18:36;-2.50;99.90
5196;DHT22;2617;51.006;12.436;2024-03-08T03:23:40;-2.50;99.90
5196;DHT22;2617;51.006;12.436;2024-03-08T03:28:42;-2.50;99.90
5196;DHT22;2617;51.006;12.436;2024-03-08T03:33:45;-2.50;99.90
5196;DHT22;2617;51.006;12.436;2024-03-08T03:38:47;-2.60;99.90
5196;DHT22;2617;51.006;12.436;2024-03-08T03:43:50;-2.60;99.90
5196;DHT22;2617;51.006;12.436;2024-03-08T03:48:53;-2.70;99.90
5196;DHT22;2617;51.006;12.436;2024-03-08T03:53:56;-2.70;99.90
5196;DHT22;2617;51.006;12.436;2024-03-08T03:58:59;-2.80;99.90
5196;DHT22;2617;51.006;12.436;2024-03-08T04:04:01;-2.80;99.90
5196;DHT22;2617;51.006;12.436;2024-03-08T04:09:04;-2.80;99.90
5196;DHT22;2617;51.006;12.436;2024-03-08T04:14:07;-2.90;99.90
5196;DHT22;2617;51.006;12.436;2024-03-08T04:19:09;-2.90;99.90
5196;DHT22;2617;51.006;12.436;2024-03-08T04:24:14;-2.90;99.90
5196;DHT22;2617;51.006;12.436;2024-03-08T04:29:16;-2.90;99.90
5196;DHT22;2617;51.006;12.436;2024-03-08T04:34:20;-2.90;99.90
5196;DHT22;2617;51.006;12.436;2024-03-08T04:39:23;-2.90;99.90
5196;DHT22;2617;51.006;12.436;2024-03-08T04:44:25;-3.00;99.90
5196;DHT22;2617;51.006;12.436;2024-03-08T04:49:27;-3.00;99.90
5196;DHT22;2617;51.006;12.436;2024-03-08T04:54:30;-3.00;99.90
5196;DHT22;2617;51.006;12.436;2024-03-08T04:59:33;-3.00;99.90
5196;DHT22;2617;51.006;12.436;2024-03-08T05:04:35;-3.00;99.90
5196;DHT22;2617;51.006;12.436;2024-03-08T05:09:38;-3.00;99.90
5196;DHT22;2617;51.006;12.436;2024-03-08T05:14:41;-3.00;99.90
5196;DHT22;2617;51.006;12.436;2024-03-08T05:19:45;-3.10;99.90
5196;DHT22;2617;51.006;12.436;2024-03-08T05:24:47;-3.10;99.90
5196;DHT22;2617;51.006;12.436;2024-03-08T05:29:50;-3.10;99.90
5196;DHT22;2617;51.006;12.436;2024-03-08T05:34:53;-3.10;99.90
5196;DHT22;2617;51.006;12.436;2024-03-08T05:39:55;-3.00;99.90
5196;DHT22;2617;51.006;12.436;2024-03-08T05:44:58;-3.00;99.90
5196;DHT22;2617;51.006;12.436;2024-03-08T05:50:00;-3.00;99.90
5196;DHT22;2617;51.006;12.436;2024-03-08T05:55:03;-2.90;99.90
5196;DHT22;2617;51.006;12.436;2024-03-08T06:00:06;-2.90;99.90
5196;DHT22;2617;51.006;12.436;2024-03-08T06:05:10;-2.80;99.90
5196;DHT22;2617;51.006;12.436;2024-03-08T06:10:12;-2.60;99.90
5196;DHT22;2617;51.006;12.436;2024-03-08T06:15:15;-2.50;99.90
5196;DHT22;2617;51.006;12.436;2024-03-08T06:20:18;-2.30;99.90
5196;DHT22;2617;51.006;12.436;2024-03-08T06:25:20;-2.20;99.90
5196;DHT22;2617;51.006;12.436;2024-03-08T06:30:23;-2.00;99.90
5196;DHT22;2617;51.006;12.436;2024-03-08T06:35:25;-1.80;99.90
5196;DHT22;2617;51.006;12.436;2024-03-08T06:40:28;-1.60;99.90
5196;DHT22;2617;51.006;12.436;2024-03-08T06:45:31;-1.20;99.90
5196;DHT22;2617;51.006;12.436;2024-03-08T06:50:34;-1.20;99.90
5196;DHT22;2617;51.006;12.436;2024-03-08T06:55:36;-1.10;99.90
5196;DHT22;2617;51.006;12.436;2024-03-08T07:00:39;-0.90;99.90
5196;DHT22;2617;51.006;12.436;2024-03-08T07:05:43;-0.60;99.90
5196;DHT22;2617;51.006;12.436;2024-03-08T07:10:47;-0.70;99.90
5196;DHT22;2617;51.006;12.436;2024-03-08T07:15:49;-0.50;99.90
5196;DHT22;2617;51.006;12.436;2024-03-08T07:20:52;-0.20;99.90
5196;DHT22;2617;51.006;12.436;2024-03-08T07:25:55;0.00;99.90
5196;DHT22;2617;51.006;12.436;2024-03-08T07:30:58;0.30;99.90
5196;DHT22;2617;51.006;12.436;2024-03-08T07:36:19;0.50;99.90
5196;DHT22;2617;51.006;12.436;2024-03-08T07:41:22;0.80;99.90
5196;DHT22;2617;51.006;12.436;2024-03-08T07:46:24;1.00;99.90
5196;DHT22;2617;51.006;12.436;2024-03-08T07:51:27;1.20;99.90
5196;DHT22;2617;51.006;12.436;2024-03-08T07:56:31;1.40;99.90
5196;DHT22;2617;51.006;12.436;2024-03-08T08:01:34;1.90;99.90
5196;DHT22;2617;51.006;12.436;2024-03-08T08:06:36;1.90;99.90
5196;DHT22;2617;51.006;12.436;2024-03-08T08:11:39;2.20;99.90
5196;DHT22;2617;51.006;12.436;2024-03-08T08:16:41;2.40;99.90
5196;DHT22;2617;51.006;12.436;2024-03-08T08:21:44;2.70;99.90
5196;DHT22;2617;51.006;12.436;2024-03-08T08:26:48;3.10;99.90
5196;DHT22;2617;51.006;12.436;2024-03-08T08:31:51;3.10;99.90
5196;DHT22;2617;51.006;12.436;2024-03-08T08:36:53;3.30;99.90
5196;DHT22;2617;51.006;12.436;2024-03-08T08:41:55;3.50;99.90
5196;DHT22;2617;51.006;12.436;2024-03-08T08:46:58;3.70;99.90
5196;DHT22;2617;51.006;12.436;2024-03-08T08:52:00;3.80;99.90
5196;DHT22;2617;51.006;12.436;2024-03-08T08:57:03;3.90;99.90
5196;DHT22;2617;51.006;12.436;2024-03-08T09:02:06;4.00;99.90
5196;DHT22;2617;51.006;12.436;2024-03-08T09:07:09;4.10;99.90
5196;DHT22;2617;51.006;12.436;2024-03-08T09:12:11;4.20;99.90
5196;DHT22;2617;51.006;12.436;2024-03-08T09:17:13;4.30;99.90
5196;DHT22;2617;51.006;12.436;2024-03-08T09:22:16;4.50;99.90
5196;DHT22;2617;51.006;12.436;2024-03-08T09:27:19;4.50;99.90
5196;DHT22;2617;51.006;12.436;2024-03-08T09:32:21;4.60;99.90
5196;DHT22;2617;51.006;12.436;2024-03-08T09:37:23;4.70;99.90
5196;DHT22;2617;51.006;12.436;2024-03-08T09:42:27;5.10;99.90
5196;DHT22;2617;51.006;12.436;2024-03-08T09:47:29;5.00;99.90
5196;DHT22;2617;51.006;12.436;2024-03-08T09:52:33;5.50;99.90
5196;DHT22;2617;51.006;12.436;2024-03-08T09:57:36;5.70;99.90
5196;DHT22;2617;51.006;12.436;2024-03-08T10:02:38;5.70;99.90
5196;DHT22;2617;51.006;12.436;2024-03-08T10:07:41;5.90;99.90
5196;DHT22;2617;51.006;12.436;2024-03-08T10:12:45;6.20;99.90
5196;DHT22;2617;51.006;12.436;2024-03-08T10:17:48;6.20;99.90
5196;DHT22;2617;51.006;12.436;2024-03-08T10:22:51;6.40;99.90
5196;DHT22;2617;51.006;12.436;2024-03-08T10:27:54;6.50;99.90
5196;DHT22;2617;51.006;12.436;2024-03-08T10:32:57;6.80;99.90
5196;DHT22;2617;51.006;12.436;2024-03-08T10:38:00;6.80;99.90
5196;DHT22;2617;51.006;12.436;2024-03-08T10:43:03;6.80;99.90
5196;DHT22;2617;51.006;12.436;2024-03-08T10:48:26;6.80;99.90
5196;DHT22;2617;51.006;12.436;2024-03-08T10:53:29;6.90;99.90
5196;DHT22;2617;51.006;12.436;2024-03-08T10:58:32;7.20;99.40
5196;DHT22;2617;51.006;12.436;2024-03-08T11:03:43;7.20;99.40
5196;DHT22;2617;51.006;12.436;2024-03-08T11:08:46;7.30;98.80
5196;DHT22;2617;51.006;12.436;2024-03-08T11:13:49;7.60;98.30
5196;DHT22;2617;51.006;12.436;2024-03-08T11:18:54;7.80;97.80
5196;DHT22;2617;51.006;12.436;2024-03-08T11:24:01;8.00;96.10
5196;DHT22;2617;51.006;12.436;2024-03-08T11:29:32;8.00;96.00
5196;DHT22;2617;51.006;12.436;2024-03-08T11:34:21;8.00;96.40
5196;DHT22;2617;51.006;12.436;2024-03-08T11:39:23;8.00;96.50
5196;DHT22;2617;51.006;12.436;2024-03-08T11:44:27;8.00;96.20
5196;DHT22;2617;51.006;12.436;2024-03-08T11:49:31;7.90;96.20
5196;DHT22;2617;51.006;12.436;2024-03-08T11:54:33;7.90;95.80
5196;DHT22;2617;51.006;12.436;2024-03-08T11:59:36;8.00;96.70
5196;DHT22;2617;51.006;12.436;2024-03-08T12:04:38;8.20;96.70
5196;DHT22;2617;51.006;12.436;2024-03-08T12:09:41;8.30;94.40
5196;DHT22;2617;51.006;12.436;2024-03-08T12:14:44;8.40;94.50
5196;DHT22;2617;51.006;12.436;2024-03-08T12:19:47;8.50;95.20
5196;DHT22;2617;51.006;12.436;2024-03-08T12:25:07;8.70;94.00
5196;DHT22;2617;51.006;12.436;2024-03-08T12:30:20;9.00;92.80
5196;DHT22;2617;51.006;12.436;2024-03-08T12:35:23;9.00;92.80
5196;DHT22;2617;51.006;12.436;2024-03-08T12:40:27;9.20;91.40
5196;DHT22;2617;51.006;12.436;2024-03-08T12:45:30;9.20;92.40
5196;DHT22;2617;51.006;12.436;2024-03-08T12:50:33;9.30;91.30
5196;DHT22;2617;51.006;12.436;2024-03-08T12:55:35;9.30;91.30
5196;DHT22;2617;51.006;12.436;2024-03-08T13:00:38;9.30;91.90
5196;DHT22;2617;51.006;12.436;2024-03-08T13:05:41;9.50;90.40
5196;DHT22;2617;51.006;12.436;2024-03-08T13:10:44;9.60;91.20
5196;DHT22;2617;51.006;12.436;2024-03-08T13:15:47;9.90;89.20
5196;DHT22;2617;51.006;12.436;2024-03-08T13:20:51;9.70;87.20
5196;DHT22;2617;51.006;12.436;2024-03-08T13:25:54;9.60;87.00
5196;DHT22;2617;51.006;12.436;2024-03-08T13:30:57;9.60;87.00
5196;DHT22;2617;51.006;12.436;2024-03-08T13:36:01;9.80;86.30
5196;DHT22;2617;51.006;12.436;2024-03-08T13:41:04;9.80;85.50
5196;DHT22;2617;51.006;12.436;2024-03-08T13:46:08;10.00;83.30
5196;DHT22;2617;51.006;12.436;2024-03-08T13:51:11;10.00;83.20
5196;DHT22;2617;51.006;12.436;2024-03-08T13:56:13;10.10;81.80
5196;DHT22;2617;51.006;12.436;2024-03-08T14:01:16;10.10;82.50
5196;DHT22;2617;51.006;12.436;2024-03-08T14:06:18;10.00;83.10
5196;DHT22;2617;51.006;12.436;2024-03-08T14:11:21;10.20;82.20
5196;DHT22;2617;51.006;12.436;2024-03-08T14:16:24;10.20;83.40
5196;DHT22;2617;51.006;12.436;2024-03-08T14:21:27;10.20;84.50
5196;DHT22;2617;51.006;12.436;2024-03-08T14:26:30;10.30;83.90
5196;DHT22;2617;51.006;12.436;2024-03-08T14:31:33;10.30;84.30
5196;DHT22;2617;51.006;12.436;2024-03-08T14:36:36;10.30;84.30
5196;DHT22;2617;51.006;12.436;2024-03-08T14:41:39;10.30;84.20
5196;DHT22;2617;51.006;12.436;2024-03-08T14:46:41;10.30;84.10
5196;DHT22;2617;51.006;12.436;2024-03-08T14:51:45;10.30;84.40
5196;DHT22;2617;51.006;12.436;2024-03-08T14:56:48;10.20;84.10
5196;DHT22;2617;51.006;12.436;2024-03-08T15:01:50;10.10;86.30
5196;DHT22;2617;51.006;12.436;2024-03-08T15:06:53;10.10;85.90
5196;DHT22;2617;51.006;12.436;2024-03-08T15:11:57;9.90;87.80
5196;DHT22;2617;51.006;12.436;2024-03-08T15:16:59;9.90;87.80
5196;DHT22;2617;51.006;12.436;2024-03-08T15:22:01;9.80;89.80
5196;DHT22;2617;51.006;12.436;2024-03-08T15:27:04;9.80;90.20
5196;DHT22;2617;51.006;12.436;2024-03-08T15:32:06;9.80;90.30
5196;DHT22;2617;51.006;12.436;2024-03-08T15:37:09;9.70;90.20
5196;DHT22;2617;51.006;12.436;2024-03-08T15:42:11;9.60;90.70
5196;DHT22;2617;51.006;12.436;2024-03-08T15:47:14;9.60;90.90
5196;DHT22;2617;51.006;12.436;2024-03-08T15:52:17;9.60;91.00
5196;DHT22;2617;51.006;12.436;2024-03-08T15:57:19;9.50;91.30
5196;DHT22;2617;51.006;12.436;2024-03-08T16:02:22;9.40;92.10
5196;DHT22;2617;51.006;12.436;2024-03-08T16:07:25;9.20;92.70
5196;DHT22;2617;51.006;12.436;2024-03-08T16:12:28;9.00;92.80
5196;DHT22;2617;51.006;12.436;2024-03-08T16:17:30;8.80;93.70
5196;DHT22;2617;51.006;12.436;2024-03-08T16:22:32;8.70;94.30
5196;DHT22;2617;51.006;12.436;2024-03-08T16:27:36;8.30;95.30
5196;DHT22;2617;51.006;12.436;2024-03-08T16:32:41;8.30;95.30
5196;DHT22;2617;51.006;12.436;2024-03-08T16:37:40;8.10;95.60
5196;DHT22;2617;51.006;12.436;2024-03-08T16:42:44;7.90;97.20
5196;DHT22;2617;51.006;12.436;2024-03-08T16:47:46;7.70;98.00
5196;DHT22;2617;51.006;12.436;2024-03-08T16:52:50;7.40;99.90
5196;DHT22;2617;51.006;12.436;2024-03-08T16:57:52;7.30;99.80
5196;DHT22;2617;51.006;12.436;2024-03-08T17:02:57;7.20;99.90
5196;DHT22;2617;51.006;12.436;2024-03-08T17:08:02;6.90;99.90
5196;DHT22;2617;51.006;12.436;2024-03-08T17:13:03;6.90;99.90
5196;DHT22;2617;51.006;12.436;2024-03-08T17:18:05;6.70;99.90
5196;DHT22;2617;51.006;12.436;2024-03-08T17:23:08;6.60;99.90
5196;DHT22;2617;51.006;12.436;2024-03-08T17:28:10;6.50;99.90
5196;DHT22;2617;51.006;12.436;2024-03-08T17:33:13;6.30;99.90
5196;DHT22;2617;51.006;12.436;2024-03-08T17:38:16;6.30;99.90
5196;DHT22;2617;51.006;12.436;2024-03-08T17:43:18;6.20;99.90
5196;DHT22;2617;51.006;12.436;2024-03-08T17:48:21;6.30;99.90
5196;DHT22;2617;51.006;12.436;2024-03-08T17:53:23;6.20;99.90
5196;DHT22;2617;51.006;12.436;2024-03-08T17:58:26;6.10;99.90
5196;DHT22;2617;51.006;12.436;2024-03-08T18:03:29;6.00;99.90
5196;DHT22;2617;51.006;12.436;2024-03-08T18:08:31;5.90;99.90
5196;DHT22;2617;51.006;12.436;2024-03-08T18:13:35;5.70;99.90
5196;DHT22;2617;51.006;12.436;2024-03-08T18:18:37;5.70;99.90
5196;DHT22;2617;51.006;12.436;2024-03-08T18:23:39;5.60;99.90
5196;DHT22;2617;51.006;12.436;2024-03-08T18:28:42;5.50;99.90
5196;DHT22;2617;51.006;12.436;2024-03-08T18:33:44;5.40;99.90
5196;DHT22;2617;51.006;12.436;2024-03-08T18:38:47;5.30;99.90
5196;DHT22;2617;51.006;12.436;2024-03-08T18:43:49;5.30;99.90
5196;DHT22;2617;51.006;12.436;2024-03-08T18:48:51;5.20;99.90
5196;DHT22;2617;51.006;12.436;2024-03-08T18:53:54;5.10;99.90
5196;DHT22;2617;51.006;12.436;2024-03-08T18:58:56;5.00;99.90
5196;DHT22;2617;51.006;12.436;2024-03-08T19:03:59;4.70;99.90
5196;DHT22;2617;51.006;12.436;2024-03-08T19:09:02;4.70;99.90
5196;DHT22;2617;51.006;12.436;2024-03-08T19:14:05;4.60;99.90
5196;DHT22;2617;51.006;12.436;2024-03-08T19:19:07;4.60;99.90
5196;DHT22;2617;51.006;12.436;2024-03-08T19:24:10;4.60;99.90
5196;DHT22;2617;51.006;12.436;2024-03-08T19:29:12;4.50;99.90
5196;DHT22;2617;51.006;12.436;2024-03-08T19:34:15;4.50;99.90
5196;DHT22;2617;51.006;12.436;2024-03-08T19:39:17;4.30;99.90
5196;DHT22;2617;51.006;12.436;2024-03-08T19:44:20;4.20;99.90
5196;DHT22;2617;51.006;12.436;2024-03-08T19:49:23;4.20;99.90
5196;DHT22;2617;51.006;12.436;2024-03-08T19:54:25;4.10;99.90
5196;DHT22;2617;51.006;12.436;2024-03-08T19:59:29;3.90;99.90
5196;DHT22;2617;51.006;12.436;2024-03-08T20:04:32;3.80;99.90
5196;DHT22;2617;51.006;12.436;2024-03-08T20:09:34;3.70;99.90
5196;DHT22;2617;51.006;12.436;2024-03-08T20:14:37;3.70;99.90
5196;DHT22;2617;51.006;12.436;2024-03-08T20:19:39;3.70;99.90
5196;DHT22;2617;51.006;12.436;2024-03-08T20:24:42;3.70;99.90
5196;DHT22;2617;51.006;12.436;2024-03-08T20:29:44;3.70;99.90
5196;DHT22;2617;51.006;12.436;2024-03-08T20:34:46;3.80;99.90
5196;DHT22;2617;51.006;12.436;2024-03-08T20:39:49;3.90;99.90
5196;DHT22;2617;51.006;12.436;2024-03-08T20:44:51;4.00;99.90
5196;DHT22;2617;51.006;12.436;2024-03-08T20:49:54;4.00;99.90
5196;DHT22;2617;51.006;12.436;2024-03-08T20:54:57;4.00;99.90
5196;DHT22;2617;51.006;12.436;2024-03-08T21:00:00;4.00;99.90
5196;DHT22;2617;51.006;12.436;2024-03-08T21:05:03;4.00;99.90
5196;DHT22;2617;51.006;12.436;2024-03-08T21:10:07;4.10;99.90
5196;DHT22;2617;51.006;12.436;2024-03-08T21:15:09;4.10;99.90
5196;DHT22;2617;51.006;12.436;2024-03-08T21:20:12;4.30;99.90
5196;DHT22;2617;51.006;12.436;2024-03-08T21:25:15;4.10;99.90
5196;DHT22;2617;51.006;12.436;2024-03-08T21:30:18;4.10;99.90
5196;DHT22;2617;51.006;12.436;2024-03-08T21:35:20;4.00;99.90
5196;DHT22;2617;51.006;12.436;2024-03-08T21:40:22;3.90;99.90
5196;DHT22;2617;51.006;12.436;2024-03-08T21:45:25;3.90;99.90
5196;DHT22;2617;51.006;12.436;2024-03-08T21:50:28;3.80;99.90
5196;DHT22;2617;51.006;12.436;2024-03-08T21:55:32;3.80;99.90
5196;DHT22;2617;51.006;12.436;2024-03-08T22:00:34;3.70;99.90
5196;DHT22;2617;51.006;12.436;2024-03-08T22:05:36;3.60;99.90
5196;DHT22;2617;51.006;12.436;2024-03-08T22:10:39;3.50;99.90
5196;DHT22;2617;51.006;12.436;2024-03-08T22:15:41;3.50;99.90
5196;DHT22;2617;51.006;12.436;2024-03-08T22:20:44;3.50;99.90
5196;DHT22;2617;51.006;12.436;2024-03-08T22:25:46;3.40;99.90
5196;DHT22;2617;51.006;12.436;2024-03-08T22:30:48;3.30;99.90
5196;DHT22;2617;51.006;12.436;2024-03-08T22:35:52;3.10;99.90
5196;DHT22;2617;51.006;12.436;2024-03-08T22:40:54;3.10;99.90
5196;DHT22;2617;51.006;12.436;2024-03-08T22:45:57;3.00;99.90
5196;DHT22;2617;51.006;12.436;2024-03-08T22:51:00;3.00;99.90
5196;DHT22;2617;51.006;12.436;2024-03-08T22:56:04;2.90;99.90
5196;DHT22;2617;51.006;12.436;2024-03-08T23:01:06;2.80;99.90
5196;DHT22;2617;51.006;12.436;2024-03-08T23:06:09;2.70;99.90
5196;DHT22;2617;51.006;12.436;2024-03-08T23:11:11;2.50;99.90
5196;DHT22;2617;51.006;12.436;2024-03-08T23:16:13;2.40;99.90
5196;DHT22;2617;51.006;12.436;2024-03-08T23:21:16;2.40;99.90
5196;DHT22;2617;51.006;12.436;2024-03-08T23:26:18;2.20;99.90
5196;DHT22;2617;51.006;12.436;2024-03-08T23:31:21;2.10;99.90
5196;DHT22;2617;51.006;12.436;2024-03-08T23:36:23;2.00;99.90
5196;DHT22;2617;51.006;12.436;2024-03-08T23:41:26;2.00;99.90
5196;DHT22;2617;51.006;12.436;2024-03-08T23:46:28;2.00;99.90
5196;DHT22;2617;51.006;12.436;2024-03-08T23:51:30;2.00;99.90
5196;DHT22;2617;51.006;12.436;2024-03-08T23:56:33;2.10;99.90
